createdAt,value
2017-09-22T00:00:28.054Z,0
2017-09-22T00:01:38.328Z,0
2017-09-22T00:02:48.600Z,0
2017-09-22T00:03:58.549Z,0
2017-09-22T00:05:08.499Z,0
2017-09-22T00:06:18.122Z,0
2017-09-22T00:07:28.395Z,0
2017-09-22T00:08:38.347Z,0
2017-09-22T00:09:48.299Z,0
2017-09-22T00:10:58.248Z,0
2017-09-22T00:12:08.516Z,0
2017-09-22T00:13:18.143Z,0
2017-09-22T00:14:28.100Z,0
2017-09-22T00:15:38.047Z,0
2017-09-22T00:16:48.325Z,0
2017-09-22T00:17:58.597Z,0
2017-09-22T00:19:08.870Z,0
2017-09-22T00:20:19.150Z,0
2017-09-22T00:21:28.777Z,0
2017-09-22T00:22:38.404Z,0
2017-09-22T00:23:48.364Z,0
2017-09-22T00:24:58.316Z,0
2017-09-22T00:26:08.264Z,0
2017-09-22T00:27:18.218Z,0
2017-09-22T00:28:28.167Z,0
2017-09-22T00:29:38.122Z,0
2017-09-22T00:30:48.070Z,0
2017-09-22T00:31:58.372Z,0
2017-09-22T00:33:07.683Z,0
2017-09-22T00:34:17.309Z,0
2017-09-22T00:35:27.260Z,0
2017-09-22T00:36:36.567Z,0
2017-09-22T00:37:46.517Z,0
2017-09-22T00:38:56.469Z,0
2017-09-22T00:40:06.415Z,0
2017-09-22T00:41:16.380Z,0
2017-09-22T00:42:26.646Z,0
2017-09-22T00:43:36.915Z,0
2017-09-22T00:44:46.865Z,0
2017-09-22T00:45:56.809Z,0
2017-09-22T00:47:07.077Z,0
2017-09-22T00:48:17.344Z,0
2017-09-22T00:49:27.615Z,0
2017-09-22T00:50:37.575Z,0
2017-09-22T00:51:47.205Z,0
2017-09-22T00:52:57.474Z,0
2017-09-22T00:54:07.418Z,0
2017-09-22T00:55:17.694Z,0
2017-09-22T00:56:27.643Z,0
2017-09-22T00:57:37.918Z,0
2017-09-22T00:58:48.190Z,0
2017-09-22T00:59:58.462Z,0
2017-09-22T01:01:08.419Z,0
2017-09-22T01:02:18.371Z,0
2017-09-22T01:03:28.327Z,0
2017-09-22T01:04:38.598Z,0
2017-09-22T01:05:48.878Z,0
2017-09-22T01:06:58.825Z,0
2017-09-22T01:08:08.777Z,0
2017-09-22T01:09:18.407Z,0
2017-09-22T01:10:28.677Z,0
2017-09-22T01:11:38.636Z,0
2017-09-22T01:12:48.905Z,0
2017-09-22T01:13:58.874Z,0
2017-09-22T01:15:08.822Z,0
2017-09-22T01:16:19.099Z,0
2017-09-22T01:17:29.048Z,0
2017-09-22T01:18:38.677Z,0
2017-09-22T01:19:48.952Z,0
2017-09-22T01:20:59.238Z,0
2017-09-22T01:22:09.513Z,0
2017-09-22T01:23:19.144Z,0
2017-09-22T01:24:29.096Z,0
2017-09-22T01:25:39.049Z,0
2017-09-22T01:26:49.327Z,0
2017-09-22T01:27:59.602Z,0
2017-09-22T01:29:09.233Z,0
2017-09-22T01:30:19.184Z,0
2017-09-22T01:31:29.144Z,0
2017-09-22T01:32:39.093Z,0
2017-09-22T01:33:48.721Z,0
2017-09-22T01:34:58.671Z,0
2017-09-22T01:36:08.948Z,0
2017-09-22T01:37:19.262Z,0
2017-09-22T01:38:28.909Z,0
2017-09-22T01:39:38.539Z,0
2017-09-22T01:40:48.173Z,0
2017-09-22T01:41:58.445Z,0
2017-09-22T01:43:08.397Z,0
2017-09-22T01:44:18.347Z,0
2017-09-22T01:45:28.302Z,0
2017-09-22T01:46:38.568Z,0
2017-09-22T01:47:48.844Z,0
2017-09-22T01:48:58.157Z,0
2017-09-22T01:50:08.114Z,0
2017-09-22T01:51:18.067Z,0
2017-09-22T01:52:28.025Z,0
2017-09-22T01:53:38.302Z,0
2017-09-22T01:54:47.931Z,0
2017-09-22T01:55:58.204Z,0
2017-09-22T01:57:08.168Z,0
2017-09-22T01:58:18.117Z,0
2017-09-22T01:59:28.389Z,0
2017-09-22T02:00:38.336Z,0
2017-09-22T02:01:47.974Z,0
2017-09-22T02:02:57.924Z,0
2017-09-22T02:04:07.874Z,0
2017-09-22T02:05:17.823Z,0
2017-09-22T02:06:27.773Z,0
2017-09-22T02:07:38.042Z,0
2017-09-22T02:08:48.317Z,0
2017-09-22T02:09:58.583Z,0
2017-09-22T02:11:08.214Z,0
2017-09-22T02:12:18.488Z,0
2017-09-22T02:13:28.763Z,0
2017-09-22T02:14:39.049Z,0
2017-09-22T02:15:48.678Z,0
2017-09-22T02:16:58.635Z,0
2017-09-22T02:18:08.265Z,0
2017-09-22T02:19:18.541Z,0
2017-09-22T02:20:28.811Z,0
2017-09-22T02:21:38.772Z,0
2017-09-22T02:22:48.723Z,0
2017-09-22T02:23:59.025Z,0
2017-09-22T02:25:09.301Z,0
2017-09-22T02:26:19.254Z,0
2017-09-22T02:27:29.530Z,0
2017-09-22T02:28:39.484Z,0
2017-09-22T02:29:49.755Z,0
2017-09-22T02:31:00.046Z,0
2017-09-22T02:32:09.359Z,0
2017-09-22T02:33:19.317Z,0
2017-09-22T02:34:29.605Z,0
2017-09-22T02:35:39.877Z,0
2017-09-22T02:36:49.833Z,0
2017-09-22T02:38:00.118Z,0
2017-09-22T02:39:10.077Z,0
2017-09-22T02:40:20.356Z,0
2017-09-22T02:41:30.316Z,0
2017-09-22T02:42:40.583Z,0
2017-09-22T02:43:50.533Z,0
2017-09-22T02:45:00.816Z,0
2017-09-22T02:46:10.791Z,0
2017-09-22T02:47:21.077Z,0
2017-09-22T02:48:31.374Z,0
2017-09-22T02:49:41.662Z,0
2017-09-22T02:50:51.937Z,0
2017-09-22T02:52:02.214Z,0
2017-09-22T02:53:12.169Z,0
2017-09-22T02:54:22.462Z,0
2017-09-22T02:55:32.747Z,0
2017-09-22T02:56:42.697Z,0
2017-09-22T02:57:52.656Z,0
2017-09-22T02:59:02.615Z,0
2017-09-22T03:00:12.243Z,0
2017-09-22T03:01:22.522Z,0
2017-09-22T03:02:32.797Z,0
2017-09-22T03:03:42.746Z,0
2017-09-22T03:04:52.053Z,0
2017-09-22T03:06:01.684Z,0
2017-09-22T03:07:10.994Z,0
2017-09-22T03:08:20.627Z,0
2017-09-22T03:09:30.909Z,0
2017-09-22T03:10:40.861Z,0
2017-09-22T03:11:50.492Z,0
2017-09-22T03:13:00.438Z,0
2017-09-22T03:14:10.707Z,0
2017-09-22T03:15:20.982Z,0
2017-09-22T03:16:31.259Z,0
2017-09-22T03:17:40.886Z,0
2017-09-22T03:18:51.196Z,0
2017-09-22T03:20:01.144Z,0
2017-09-22T03:21:11.100Z,0
2017-09-22T03:22:21.370Z,0
2017-09-22T03:23:31.638Z,0
2017-09-22T03:24:41.913Z,0
2017-09-22T03:25:51.221Z,0
2017-09-22T03:27:01.179Z,0
2017-09-22T03:28:10.805Z,0
2017-09-22T03:29:21.075Z,0
2017-09-22T03:30:31.353Z,0
2017-09-22T03:31:40.981Z,0
2017-09-22T03:32:51.263Z,0
2017-09-22T03:34:01.211Z,0
2017-09-22T03:35:11.167Z,0
2017-09-22T03:36:21.110Z,0
2017-09-22T03:37:31.389Z,0
2017-09-22T03:38:41.660Z,0
2017-09-22T03:39:51.287Z,0
2017-09-22T03:41:01.244Z,0
2017-09-22T03:42:10.872Z,0
2017-09-22T03:43:20.825Z,0
2017-09-22T03:44:31.091Z,0
2017-09-22T03:45:41.368Z,0
2017-09-22T03:46:51.318Z,0
2017-09-22T03:48:00.951Z,0
2017-09-22T03:49:11.229Z,0
2017-09-22T03:50:21.178Z,0
2017-09-22T03:51:31.453Z,0
2017-09-22T03:52:41.728Z,0
2017-09-22T03:53:51.680Z,0
2017-09-22T03:55:01.958Z,0
2017-09-22T03:56:12.245Z,0
2017-09-22T03:57:22.520Z,0
2017-09-22T03:58:32.804Z,0
2017-09-22T03:59:43.122Z,0
2017-09-22T04:00:53.078Z,0
2017-09-22T04:02:03.348Z,0
2017-09-22T04:03:13.627Z,0
2017-09-22T04:04:23.579Z,0
2017-09-22T04:05:33.559Z,0
2017-09-22T04:06:43.834Z,0
2017-09-22T04:07:53.782Z,0
2017-09-22T04:09:03.415Z,0
2017-09-22T04:10:13.370Z,0
2017-09-22T04:11:23.001Z,0
2017-09-22T04:12:32.633Z,0
2017-09-22T04:13:42.910Z,0
2017-09-22T04:14:52.874Z,0
2017-09-22T04:16:02.818Z,0
2017-09-22T04:17:12.766Z,0
2017-09-22T04:18:22.712Z,0
2017-09-22T04:19:32.992Z,0
2017-09-22T04:20:43.263Z,0
2017-09-22T04:21:53.235Z,0
2017-09-22T04:23:02.862Z,0
2017-09-22T04:24:12.495Z,0
2017-09-22T04:25:22.442Z,0
2017-09-22T04:26:32.078Z,0
2017-09-22T04:27:42.358Z,0
2017-09-22T04:28:52.305Z,0
2017-09-22T04:30:01.941Z,0
2017-09-22T04:31:11.570Z,0
2017-09-22T04:32:21.519Z,0
2017-09-22T04:33:31.790Z,0
2017-09-22T04:34:41.749Z,0
2017-09-22T04:35:51.377Z,0
2017-09-22T04:37:01.327Z,0
2017-09-22T04:38:10.955Z,0
2017-09-22T04:39:20.916Z,0
2017-09-22T04:40:31.271Z,0
2017-09-22T04:41:40.902Z,0
2017-09-22T04:42:51.177Z,0
2017-09-22T04:44:01.126Z,0
2017-09-22T04:45:11.079Z,0
2017-09-22T04:46:21.065Z,0
2017-09-22T04:47:31.343Z,0
2017-09-22T04:48:41.664Z,0
2017-09-22T04:49:51.934Z,0
2017-09-22T04:51:02.200Z,0
2017-09-22T04:52:12.075Z,0
2017-09-22T04:53:21.383Z,0
2017-09-22T04:54:31.365Z,0
2017-09-22T04:55:41.637Z,0
2017-09-22T04:56:51.926Z,0
2017-09-22T04:58:01.230Z,0
2017-09-22T04:59:10.860Z,0
2017-09-22T05:00:20.813Z,0
2017-09-22T05:01:30.444Z,0
2017-09-22T05:02:40.722Z,0
2017-09-22T05:03:50.998Z,0
2017-09-22T05:05:01.276Z,0
2017-09-22T05:06:11.233Z,0
2017-09-22T05:07:21.516Z,0
2017-09-22T05:08:31.468Z,0
2017-09-22T05:09:41.743Z,5
2017-09-22T05:10:51.383Z,5
2017-09-22T05:12:01.703Z,5
2017-09-22T05:13:11.697Z,5
2017-09-22T05:14:21.651Z,5
2017-09-22T05:15:31.608Z,5
2017-09-22T05:16:41.567Z,5
2017-09-22T05:17:51.840Z,5
2017-09-22T05:19:01.796Z,5
2017-09-22T05:20:11.752Z,5
2017-09-22T05:21:22.028Z,5
2017-09-22T05:22:32.299Z,5
2017-09-22T05:23:42.566Z,5
2017-09-22T05:24:52.516Z,5
2017-09-22T05:26:02.473Z,5
2017-09-22T05:27:12.744Z,5
2017-09-22T05:28:23.016Z,5
2017-09-22T05:29:33.285Z,10
2017-09-22T05:30:43.245Z,10
2017-09-22T05:31:53.517Z,10
2017-09-22T05:33:03.719Z,10
2017-09-22T05:34:13.674Z,10
2017-09-22T05:35:23.949Z,10
2017-09-22T05:36:33.922Z,10
2017-09-22T05:37:44.192Z,15
2017-09-22T05:38:54.476Z,15
2017-09-22T05:40:04.423Z,15
2017-09-22T05:41:14.056Z,15
2017-09-22T05:42:24.334Z,15
2017-09-22T05:43:34.294Z,20
2017-09-22T05:44:44.248Z,20
2017-09-22T05:45:54.530Z,20
2017-09-22T05:47:04.806Z,20
2017-09-22T05:48:14.752Z,20
2017-09-22T05:49:24.708Z,25
2017-09-22T05:50:34.665Z,25
2017-09-22T05:51:44.292Z,30
2017-09-22T05:52:54.570Z,35
2017-09-22T05:54:04.845Z,35
2017-09-22T05:55:14.797Z,35
2017-09-22T05:56:25.077Z,35
2017-09-22T05:57:35.030Z,40
2017-09-22T05:58:44.988Z,45
2017-09-22T05:59:55.265Z,40
2017-09-22T06:01:05.220Z,40
2017-09-22T06:02:15.508Z,45
2017-09-22T06:03:24.817Z,45
2017-09-22T06:04:34.774Z,50
2017-09-22T06:05:44.406Z,45
2017-09-22T06:06:54.676Z,45
2017-09-22T06:08:04.952Z,45
2017-09-22T06:09:15.224Z,50
2017-09-22T06:10:25.505Z,55
2017-09-22T06:11:35.787Z,55
2017-09-22T06:12:46.066Z,55
2017-09-22T06:13:56.344Z,55
2017-09-22T06:15:06.623Z,55
2017-09-22T06:16:15.930Z,55
2017-09-22T06:17:26.208Z,55
2017-09-22T06:18:36.481Z,55
2017-09-22T06:19:46.764Z,55
2017-09-22T06:20:57.036Z,55
2017-09-22T06:22:07.306Z,55
2017-09-22T06:23:16.942Z,55
2017-09-22T06:24:25.930Z,55
2017-09-22T06:25:36.206Z,55
2017-09-22T06:26:45.515Z,55
2017-09-22T06:27:55.789Z,55
2017-09-22T06:29:06.062Z,60
2017-09-22T06:30:16.346Z,60
2017-09-22T06:31:26.624Z,60
2017-09-22T06:32:36.581Z,60
2017-09-22T06:33:46.220Z,60
2017-09-22T06:34:56.493Z,55
2017-09-22T06:36:06.443Z,55
2017-09-22T06:37:16.068Z,55
2017-09-22T06:38:26.340Z,55
2017-09-22T06:39:36.613Z,55
2017-09-22T06:40:46.569Z,55
2017-09-22T06:41:56.527Z,55
2017-09-22T06:43:06.488Z,55
2017-09-22T06:44:16.762Z,55
2017-09-22T06:45:26.765Z,55
2017-09-22T06:46:36.716Z,55
2017-09-22T06:47:46.991Z,60
2017-09-22T06:48:57.269Z,60
2017-09-22T06:50:07.217Z,65
2017-09-22T06:51:16.852Z,70
2017-09-22T06:52:26.809Z,70
2017-09-22T06:53:36.767Z,80
2017-09-22T06:54:46.721Z,85
2017-09-22T06:55:56.350Z,90
2017-09-22T06:57:06.657Z,95
2017-09-22T06:58:16.610Z,90
2017-09-22T06:59:26.877Z,90
2017-09-22T07:00:36.509Z,90
2017-09-22T07:01:46.470Z,90
2017-09-22T07:02:56.105Z,95
2017-09-22T07:04:06.381Z,95
2017-09-22T07:05:16.343Z,100
2017-09-22T07:06:26.619Z,105
2017-09-22T07:07:36.574Z,110
2017-09-22T07:08:46.854Z,115
2017-09-22T07:09:56.803Z,115
2017-09-22T07:11:06.759Z,115
2017-09-22T07:12:16.394Z,115
2017-09-22T07:13:26.348Z,120
2017-09-22T07:14:36.310Z,125
2017-09-22T07:15:46.269Z,125
2017-09-22T07:16:56.547Z,125
2017-09-22T07:18:06.835Z,125
2017-09-22T07:19:16.795Z,120
2017-09-22T07:20:27.070Z,120
2017-09-22T07:21:37.024Z,110
2017-09-22T07:22:47.302Z,105
2017-09-22T07:23:57.262Z,105
2017-09-22T07:25:07.220Z,100
2017-09-22T07:26:17.495Z,100
2017-09-22T07:27:27.125Z,100
2017-09-22T07:28:37.407Z,95
2017-09-22T07:29:47.364Z,90
2017-09-22T07:30:57.637Z,90
2017-09-22T07:32:07.922Z,90
2017-09-22T07:33:18.198Z,90
2017-09-22T07:34:28.153Z,95
2017-09-22T07:35:38.426Z,95
2017-09-22T07:36:48.727Z,95
2017-09-22T07:37:59.006Z,105
2017-09-22T07:39:08.960Z,105
2017-09-22T07:40:18.591Z,110
2017-09-22T07:41:28.869Z,110
2017-09-22T07:42:38.827Z,115
2017-09-22T07:43:48.787Z,115
2017-09-22T07:44:58.740Z,115
2017-09-22T07:46:08.690Z,120
2017-09-22T07:47:18.658Z,115
2017-09-22T07:48:28.612Z,115
2017-09-22T07:49:38.887Z,115
2017-09-22T07:50:48.552Z,110
2017-09-22T07:51:58.839Z,105
2017-09-22T07:53:08.465Z,105
2017-09-22T07:54:18.426Z,110
2017-09-22T07:55:28.385Z,115
2017-09-22T07:56:38.334Z,115
2017-09-22T07:57:47.968Z,115
2017-09-22T07:59:01.010Z,120
2017-09-22T08:00:11.289Z,125
2017-09-22T08:01:21.565Z,135
2017-09-22T08:02:31.525Z,135
2017-09-22T08:03:41.484Z,135
2017-09-22T08:04:51.117Z,130
2017-09-22T08:06:01.397Z,125
2017-09-22T08:07:11.025Z,125
2017-09-22T08:08:20.979Z,125
2017-09-22T08:09:31.255Z,130
2017-09-22T08:10:41.526Z,130
2017-09-22T08:11:51.813Z,125
2017-09-22T08:13:01.767Z,125
2017-09-22T08:14:12.040Z,125
2017-09-22T08:15:21.990Z,135
2017-09-22T08:16:31.622Z,155
2017-09-22T08:17:41.254Z,170
2017-09-22T08:18:51.575Z,170
2017-09-22T08:20:01.852Z,170
2017-09-22T08:21:11.159Z,175
2017-09-22T08:22:21.434Z,185
2017-09-22T08:23:31.716Z,190
2017-09-22T08:24:41.671Z,185
2017-09-22T08:25:51.949Z,170
2017-09-22T08:27:02.229Z,170
2017-09-22T08:28:12.506Z,170
2017-09-22T08:29:21.817Z,170
2017-09-22T08:30:32.093Z,170
2017-09-22T08:31:42.052Z,160
2017-09-22T08:32:52.326Z,160
2017-09-22T08:34:02.282Z,155
2017-09-22T08:35:11.917Z,150
2017-09-22T08:36:21.869Z,145
2017-09-22T08:37:32.142Z,145
2017-09-22T08:38:42.096Z,145
2017-09-22T08:39:52.058Z,160
2017-09-22T08:41:02.017Z,170
2017-09-22T08:42:11.980Z,170
2017-09-22T08:43:21.937Z,175
2017-09-22T08:44:32.220Z,180
2017-09-22T08:45:42.174Z,180
2017-09-22T08:46:52.449Z,185
2017-09-22T08:48:02.733Z,190
2017-09-22T08:49:12.046Z,200
2017-09-22T08:50:22.002Z,215
2017-09-22T08:51:31.956Z,230
2017-09-22T08:52:41.916Z,235
2017-09-22T08:53:52.190Z,230
2017-09-22T08:55:02.481Z,215
2017-09-22T08:56:12.114Z,200
2017-09-22T08:57:21.743Z,180
2017-09-22T08:58:31.699Z,160
2017-09-22T08:59:41.664Z,150
2017-09-22T09:00:51.290Z,155
2017-09-22T09:02:01.568Z,170
2017-09-22T09:03:11.845Z,175
2017-09-22T09:04:21.807Z,175
2017-09-22T09:05:31.794Z,180
2017-09-22T09:06:41.753Z,180
2017-09-22T09:07:52.040Z,180
2017-09-22T09:09:02.360Z,175
2017-09-22T09:10:12.642Z,165
2017-09-22T09:11:22.922Z,150
2017-09-22T09:12:31.910Z,140
2017-09-22T09:13:42.191Z,140
2017-09-22T09:14:52.140Z,150
2017-09-22T09:16:02.093Z,160
2017-09-22T09:17:12.376Z,170
2017-09-22T09:18:22.011Z,185
2017-09-22T09:19:32.293Z,190
2017-09-22T09:20:42.249Z,185
2017-09-22T09:21:52.523Z,180
2017-09-22T09:23:02.479Z,175
2017-09-22T09:24:12.445Z,175
2017-09-22T09:25:22.076Z,170
2017-09-22T09:26:32.354Z,170
2017-09-22T09:27:42.306Z,170
2017-09-22T09:28:52.260Z,175
2017-09-22T09:30:02.213Z,180
2017-09-22T09:31:12.165Z,180
2017-09-22T09:32:22.115Z,180
2017-09-22T09:33:32.390Z,180
2017-09-22T09:34:42.340Z,185
2017-09-22T09:35:51.967Z,195
2017-09-22T09:37:01.595Z,200
2017-09-22T09:38:11.549Z,215
2017-09-22T09:39:21.181Z,220
2017-09-22T09:40:31.460Z,225
2017-09-22T09:41:41.101Z,220
2017-09-22T09:42:50.412Z,210
2017-09-22T09:44:00.372Z,190
2017-09-22T09:45:10.005Z,170
2017-09-22T09:46:20.282Z,160
2017-09-22T09:47:30.577Z,165
2017-09-22T09:48:40.537Z,165
2017-09-22T09:49:50.824Z,165
2017-09-22T09:51:00.454Z,175
2017-09-22T09:52:10.422Z,180
2017-09-22T09:53:20.374Z,190
2017-09-22T09:54:30.329Z,200
2017-09-22T09:55:39.963Z,205
2017-09-22T09:56:49.918Z,205
2017-09-22T09:57:59.875Z,205
2017-09-22T09:59:09.827Z,190
2017-09-22T10:00:20.101Z,165
2017-09-22T10:01:30.055Z,140
2017-09-22T10:02:39.696Z,140
2017-09-22T10:03:49.970Z,160
2017-09-22T10:05:00.245Z,190
2017-09-22T10:06:10.520Z,215
2017-09-22T10:07:20.480Z,225
2017-09-22T10:08:30.112Z,235
2017-09-22T10:09:40.389Z,240
2017-09-22T10:10:50.666Z,245
2017-09-22T10:12:00.628Z,260
2017-09-22T10:13:10.580Z,280
2017-09-22T10:14:20.539Z,285
2017-09-22T10:15:30.495Z,295
2017-09-22T10:16:40.785Z,300
2017-09-22T10:17:51.067Z,310
2017-09-22T10:19:01.025Z,340
2017-09-22T10:20:10.983Z,380
2017-09-22T10:21:20.946Z,430
2017-09-22T10:22:30.905Z,440
2017-09-22T10:23:41.183Z,430
2017-09-22T10:24:51.459Z,420
2017-09-22T10:26:01.093Z,415
2017-09-22T10:27:11.053Z,405
2017-09-22T10:28:21.008Z,380
2017-09-22T10:29:30.962Z,350
2017-09-22T10:30:41.246Z,345
2017-09-22T10:31:51.211Z,350
2017-09-22T10:33:01.483Z,330
2017-09-22T10:34:11.805Z,320
2017-09-22T10:35:22.080Z,320
2017-09-22T10:36:32.365Z,325
2017-09-22T10:37:42.322Z,325
2017-09-22T10:38:52.606Z,320
2017-09-22T10:40:02.584Z,295
2017-09-22T10:41:12.869Z,285
2017-09-22T10:42:23.149Z,235
2017-09-22T10:43:32.778Z,195
2017-09-22T10:44:42.736Z,175
2017-09-22T10:45:52.685Z,190
2017-09-22T10:47:02.962Z,225
2017-09-22T10:48:12.597Z,270
2017-09-22T10:49:22.884Z,285
2017-09-22T10:50:33.165Z,295
2017-09-22T10:51:42.799Z,290
2017-09-22T10:52:53.079Z,275
2017-09-22T10:54:03.358Z,270
2017-09-22T10:55:13.319Z,260
2017-09-22T10:56:23.598Z,255
2017-09-22T10:57:33.875Z,255
2017-09-22T10:58:43.843Z,260
2017-09-22T10:59:53.796Z,260
2017-09-22T11:01:03.424Z,260
2017-09-22T11:02:13.381Z,265
2017-09-22T11:03:23.348Z,265
2017-09-22T11:04:33.623Z,255
2017-09-22T11:05:43.582Z,255
2017-09-22T11:06:53.857Z,255
2017-09-22T11:08:04.154Z,255
2017-09-22T11:09:14.438Z,250
2017-09-22T11:10:24.708Z,250
2017-09-22T11:11:34.341Z,245
2017-09-22T11:12:44.625Z,245
2017-09-22T11:13:54.257Z,240
2017-09-22T11:15:04.213Z,235
2017-09-22T11:16:14.488Z,225
2017-09-22T11:17:24.125Z,215
2017-09-22T11:18:33.435Z,205
2017-09-22T11:19:43.715Z,195
2017-09-22T11:20:53.670Z,185
2017-09-22T11:22:03.951Z,185
2017-09-22T11:23:13.585Z,185
2017-09-22T11:24:23.865Z,190
2017-09-22T11:25:33.820Z,205
2017-09-22T11:26:44.102Z,225
2017-09-22T11:27:54.057Z,255
2017-09-22T11:29:03.686Z,285
2017-09-22T11:30:13.641Z,310
2017-09-22T11:31:23.595Z,325
2017-09-22T11:32:33.224Z,335
2017-09-22T11:33:43.177Z,350
2017-09-22T11:34:53.454Z,365
2017-09-22T11:36:03.727Z,375
2017-09-22T11:37:13.679Z,390
2017-09-22T11:38:23.639Z,405
2017-09-22T11:39:33.915Z,425
2017-09-22T11:40:43.224Z,425
2017-09-22T11:41:53.506Z,405
2017-09-22T11:43:03.781Z,375
2017-09-22T11:44:13.735Z,360
2017-09-22T11:45:23.701Z,350
2017-09-22T11:46:33.983Z,345
2017-09-22T11:47:44.262Z,340
2017-09-22T11:48:54.579Z,345
2017-09-22T11:50:04.541Z,350
2017-09-22T11:51:14.503Z,350
2017-09-22T11:52:24.781Z,335
2017-09-22T11:53:34.092Z,325
2017-09-22T11:54:44.368Z,320
2017-09-22T11:55:54.000Z,315
2017-09-22T11:57:03.953Z,305
2017-09-22T11:58:14.240Z,305
2017-09-22T11:59:24.520Z,310
2017-09-22T12:00:34.796Z,300
2017-09-22T12:01:45.071Z,300
2017-09-22T12:02:55.353Z,300
2017-09-22T12:04:05.312Z,295
2017-09-22T12:05:14.623Z,290
2017-09-22T12:06:24.264Z,285
2017-09-22T12:07:34.224Z,285
2017-09-22T12:08:44.177Z,285
2017-09-22T12:09:54.134Z,280
2017-09-22T12:11:04.096Z,285
2017-09-22T12:12:14.056Z,285
2017-09-22T12:13:24.010Z,280
2017-09-22T12:14:34.294Z,250
2017-09-22T12:15:44.253Z,200
2017-09-22T12:16:54.531Z,175
2017-09-22T12:18:04.167Z,185
2017-09-22T12:19:14.137Z,205
2017-09-22T12:20:24.419Z,210
2017-09-22T12:21:34.376Z,215
2017-09-22T12:22:44.335Z,210
2017-09-22T12:23:54.623Z,200
2017-09-22T12:25:04.580Z,195
2017-09-22T12:26:14.535Z,195
2017-09-22T12:27:24.170Z,210
2017-09-22T12:28:34.457Z,220
2017-09-22T12:29:44.735Z,220
2017-09-22T12:30:54.370Z,220
2017-09-22T12:32:04.656Z,225
2017-09-22T12:33:14.617Z,220
2017-09-22T12:34:24.899Z,215
2017-09-22T12:35:34.861Z,210
2017-09-22T12:36:45.140Z,215
2017-09-22T12:37:55.101Z,205
2017-09-22T12:39:05.393Z,190
2017-09-22T12:40:15.347Z,185
2017-09-22T12:41:25.627Z,185
2017-09-22T12:42:35.903Z,190
2017-09-22T12:43:46.187Z,190
2017-09-22T12:44:56.467Z,195
2017-09-22T12:46:06.430Z,210
2017-09-22T12:47:16.400Z,215
2017-09-22T12:48:26.675Z,200
2017-09-22T12:49:35.990Z,185
2017-09-22T12:50:46.267Z,170
2017-09-22T12:51:56.552Z,160
2017-09-22T12:53:06.514Z,150
2017-09-22T12:54:16.484Z,145
2017-09-22T12:55:26.440Z,135
2017-09-22T12:56:36.718Z,140
2017-09-22T12:57:47.006Z,145
2017-09-22T12:58:56.971Z,145
2017-09-22T13:00:06.936Z,140
2017-09-22T13:01:16.897Z,150
2017-09-22T13:02:27.187Z,170
2017-09-22T13:03:37.139Z,195
2017-09-22T13:04:47.097Z,230
2017-09-22T13:05:57.399Z,235
2017-09-22T13:07:07.678Z,225
2017-09-22T13:08:17.305Z,215
2017-09-22T13:09:27.271Z,230
2017-09-22T13:10:37.549Z,235
2017-09-22T13:11:47.512Z,245
2017-09-22T13:12:57.791Z,245
2017-09-22T13:14:07.815Z,240
2017-09-22T13:15:17.807Z,245
2017-09-22T13:16:27.762Z,255
2017-09-22T13:17:37.717Z,250
2017-09-22T13:18:47.674Z,240
2017-09-22T13:19:57.319Z,235
2017-09-22T13:21:07.274Z,240
2017-09-22T13:22:17.225Z,235
2017-09-22T13:23:27.504Z,235
2017-09-22T13:24:37.788Z,245
2017-09-22T13:25:47.132Z,250
2017-09-22T13:26:57.406Z,265
2017-09-22T13:28:07.037Z,270
2017-09-22T13:29:16.680Z,260
2017-09-22T13:30:26.644Z,240
2017-09-22T13:31:36.924Z,210
2017-09-22T13:32:46.882Z,195
2017-09-22T13:33:56.833Z,185
2017-09-22T13:35:07.117Z,185
2017-09-22T13:36:17.073Z,180
2017-09-22T13:37:26.705Z,170
2017-09-22T13:38:36.664Z,165
2017-09-22T13:39:46.615Z,165
2017-09-22T13:40:56.898Z,175
2017-09-22T13:42:07.182Z,185
2017-09-22T13:43:17.472Z,200
2017-09-22T13:44:27.783Z,205
2017-09-22T13:45:37.438Z,205
2017-09-22T13:46:47.712Z,205
2017-09-22T13:47:57.665Z,205
2017-09-22T13:49:07.625Z,195
2017-09-22T13:50:17.918Z,185
2017-09-22T13:51:27.874Z,175
2017-09-22T13:52:38.152Z,165
2017-09-22T13:53:48.110Z,170
2017-09-22T13:54:58.398Z,175
2017-09-22T13:56:08.029Z,195
2017-09-22T13:57:17.980Z,205
2017-09-22T13:58:27.960Z,210
2017-09-22T13:59:37.919Z,205
2017-09-22T14:00:48.205Z,200
2017-09-22T14:01:57.849Z,195
2017-09-22T14:03:08.132Z,190
2017-09-22T14:04:18.096Z,185
2017-09-22T14:05:28.380Z,180
2017-09-22T14:06:38.655Z,175
2017-09-22T14:07:48.616Z,170
2017-09-22T14:08:58.582Z,170
2017-09-22T14:10:08.859Z,170
2017-09-22T14:11:18.816Z,165
2017-09-22T14:12:28.772Z,160
2017-09-22T14:13:39.054Z,160
2017-09-22T14:14:49.333Z,155
2017-09-22T14:15:59.616Z,150
2017-09-22T14:17:09.897Z,145
2017-09-22T14:18:19.530Z,140
2017-09-22T14:19:29.814Z,130
2017-09-22T14:20:40.094Z,130
2017-09-22T14:21:49.729Z,125
2017-09-22T14:23:00.013Z,120
2017-09-22T14:24:09.648Z,115
2017-09-22T14:25:19.605Z,110
2017-09-22T14:26:29.892Z,105
2017-09-22T14:27:39.525Z,100
2017-09-22T14:28:48.836Z,95
2017-09-22T14:29:59.115Z,90
2017-09-22T14:31:09.394Z,85
2017-09-22T14:32:18.709Z,85
2017-09-22T14:33:28.342Z,85
2017-09-22T14:34:38.298Z,85
2017-09-22T14:35:48.256Z,85
2017-09-22T14:36:58.540Z,75
2017-09-22T14:38:08.171Z,75
2017-09-22T14:39:18.445Z,70
2017-09-22T14:40:28.401Z,70
2017-09-22T14:41:38.678Z,65
2017-09-22T14:42:48.959Z,65
2017-09-22T14:43:59.241Z,60
2017-09-22T14:45:09.519Z,60
2017-09-22T14:46:19.513Z,60
2017-09-22T14:47:29.162Z,55
2017-09-22T14:48:39.120Z,55
2017-09-22T14:49:49.082Z,60
2017-09-22T14:50:59.361Z,65
2017-09-22T14:52:08.995Z,65
2017-09-22T14:53:18.950Z,65
2017-09-22T14:54:29.232Z,65
2017-09-22T14:55:39.509Z,70
2017-09-22T14:56:49.784Z,65
2017-09-22T14:57:59.744Z,65
2017-09-22T14:59:10.278Z,65
2017-09-22T15:00:20.560Z,65
2017-09-22T15:01:30.198Z,70
2017-09-22T15:02:40.479Z,70
2017-09-22T15:03:50.111Z,65
2017-09-22T15:05:00.396Z,65
2017-09-22T15:06:10.673Z,65
2017-09-22T15:07:20.950Z,60
2017-09-22T15:08:30.899Z,60
2017-09-22T15:09:40.849Z,55
2017-09-22T15:10:51.227Z,55
2017-09-22T15:12:01.540Z,50
2017-09-22T15:13:11.821Z,50
2017-09-22T15:14:22.103Z,45
2017-09-22T15:15:32.061Z,45
2017-09-22T15:16:42.339Z,45
2017-09-22T15:17:51.970Z,50
2017-09-22T15:19:02.248Z,55
2017-09-22T15:20:12.207Z,55
2017-09-22T15:21:22.486Z,55
2017-09-22T15:22:32.768Z,60
2017-09-22T15:23:42.732Z,60
2017-09-22T15:24:53.011Z,60
2017-09-22T15:26:03.285Z,60
2017-09-22T15:27:12.923Z,55
2017-09-22T15:28:23.213Z,60
2017-09-22T15:29:32.848Z,60
2017-09-22T15:30:42.478Z,55
2017-09-22T15:31:52.430Z,55
2017-09-22T15:33:02.716Z,50
2017-09-22T15:34:14.356Z,50
2017-09-22T15:35:23.988Z,50
2017-09-22T15:36:34.280Z,45
2017-09-22T15:37:44.562Z,45
2017-09-22T15:38:54.516Z,45
2017-09-22T15:40:04.806Z,45
2017-09-22T15:41:14.439Z,50
2017-09-22T15:42:24.399Z,50
2017-09-22T15:43:34.673Z,55
2017-09-22T15:44:44.623Z,55
2017-09-22T15:45:54.598Z,50
2017-09-22T15:47:04.876Z,50
2017-09-22T15:48:15.154Z,45
2017-09-22T15:49:25.106Z,40
2017-09-22T15:50:35.388Z,40
2017-09-22T15:51:45.342Z,35
2017-09-22T15:52:55.615Z,35
2017-09-22T15:54:05.578Z,35
2017-09-22T15:55:15.532Z,35
2017-09-22T15:56:25.812Z,35
2017-09-22T15:57:36.088Z,35
2017-09-22T15:58:45.734Z,35
2017-09-22T15:59:55.687Z,35
2017-09-22T16:01:05.642Z,30
2017-09-22T16:02:15.927Z,30
2017-09-22T16:03:26.206Z,30
2017-09-22T16:04:36.161Z,30
2017-09-22T16:05:46.435Z,30
2017-09-22T16:06:56.715Z,30
2017-09-22T16:08:06.349Z,30
2017-09-22T16:09:16.635Z,30
2017-09-22T16:10:26.914Z,30
2017-09-22T16:11:36.548Z,30
2017-09-22T16:12:46.827Z,35
2017-09-22T16:13:56.138Z,35
2017-09-22T16:15:06.413Z,35
2017-09-22T16:16:16.043Z,40
2017-09-22T16:17:25.997Z,40
2017-09-22T16:18:36.272Z,40
2017-09-22T16:19:46.555Z,40
2017-09-22T16:20:56.188Z,40
2017-09-22T16:22:05.496Z,35
2017-09-22T16:23:15.484Z,35
2017-09-22T16:24:25.439Z,35
2017-09-22T16:25:35.394Z,35
2017-09-22T16:26:45.329Z,30
2017-09-22T16:27:55.606Z,30
2017-09-22T16:29:05.889Z,30
2017-09-22T16:30:15.855Z,30
2017-09-22T16:31:26.133Z,30
2017-09-22T16:32:36.087Z,25
2017-09-22T16:33:45.723Z,25
2017-09-22T16:34:55.999Z,20